Time;durP1;ratioP1;P1;durP2;ratioP2;P2;SDS_P1;SDS_P2;PMS_P1;PMS_P2;Temp;Humidity;BMP_temperature;BMP_pressure;BME280_temperature;BME280_humidity;BME280_pressure;Samples;Min_cycle;Max_cycle;Signal;HPM_P1;HPM_P2
2023/08/22 00:00:46;;;;;;;19.27;15.15;;;16.60;99.90;;;;;;4986752;28;20153;-67
2023/08/22 00:03:13;;;;;;;17.70;13.88;;;16.60;99.90;;;;;;5002746;28;20044;-67
2023/08/22 00:05:39;;;;;;;20.58;15.68;;;16.60;99.90;;;;;;5019866;28;20057;-67
2023/08/22 00:08:05;;;;;;;19.98;15.65;;;16.60;99.90;;;;;;5018731;28;20045;-67
2023/08/22 00:10:32;;;;;;;19.52;15.25;;;16.60;99.90;;;;;;5037516;28;20179;-66
2023/08/22 00:12:58;;;;;;;17.90;14.85;;;16.70;99.90;;;;;;5019866;28;20037;-67
2023/08/22 00:15:24;;;;;;;18.50;13.95;;;16.70;99.90;;;;;;5019829;28;20041;-67
2023/08/22 00:17:50;;;;;;;16.77;13.77;;;16.80;99.90;;;;;;5019674;28;20594;-66
2023/08/22 00:20:17;;;;;;;16.02;13.65;;;16.80;99.90;;;;;;5036932;28;20591;-67
2023/08/22 00:22:43;;;;;;;17.90;13.25;;;16.90;99.90;;;;;;5019380;28;20097;-67
2023/08/22 00:25:10;;;;;;;17.98;13.10;;;16.90;99.90;;;;;;5019899;28;20120;-67
2023/08/22 00:27:36;;;;;;;17.40;12.13;;;16.90;99.90;;;;;;5019871;28;20058;-66
2023/08/22 00:30:02;;;;;;;14.43;11.80;;;16.90;99.90;;;;;;4986569;28;20045;-66
2023/08/22 00:32:29;;;;;;;15.98;10.77;;;17.00;99.90;;;;;;5018918;28;20914;-66
2023/08/22 00:34:54;;;;;;;15.57;10.82;;;16.90;99.90;;;;;;5019581;28;20041;-66
2023/08/22 00:37:20;;;;;;;16.33;10.10;;;17.00;99.90;;;;;;5020043;28;20557;-66
2023/08/22 00:39:46;;;;;;;12.77;9.57;;;17.00;99.90;;;;;;5038527;28;20053;-66
2023/08/22 00:42:11;;;;;;;15.50;9.70;;;17.10;99.90;;;;;;5037810;28;20044;-66
2023/08/22 00:44:37;;;;;;;14.23;8.65;;;17.10;99.90;;;;;;5003245;28;20049;-66
2023/08/22 00:47:04;;;;;;;16.15;8.25;;;17.10;99.90;;;;;;5019869;28;20041;-66
2023/08/22 00:49:30;;;;;;;11.30;8.07;;;17.10;99.90;;;;;;5019916;28;20052;-66
2023/08/22 00:51:58;;;;;;;13.75;8.20;;;17.10;99.90;;;;;;5003504;28;20051;-66
2023/08/22 00:54:26;;;;;;;12.32;7.22;;;17.10;99.90;;;;;;5003346;28;20179;-66
2023/08/22 00:56:53;;;;;;;10.82;6.80;;;17.00;99.90;;;;;;4992685;28;20041;-66
2023/08/22 00:59:19;;;;;;;14.10;8.05;;;17.00;99.90;;;;;;5019945;28;20053;-66
2023/08/22 01:01:46;;;;;;;11.32;6.82;;;17.00;99.90;;;;;;5002324;28;20045;-66
2023/08/22 01:04:12;;;;;;;13.82;8.07;;;17.00;99.90;;;;;;4986765;28;20140;-66
2023/08/22 01:07:05;;;;;;;11.35;8.05;;;16.90;99.90;;;;;;5018618;28;20049;-66
2023/08/22 01:09:36;;;;;;;10.43;7.43;;;16.90;99.90;;;;;;5035818;28;20656;-66
2023/08/22 01:12:26;;;;;;;10.82;7.30;;;16.90;99.90;;;;;;5020260;28;20047;-65
2023/08/22 01:15:00;;;;;;;13.88;8.43;;;16.90;99.90;;;;;;5020493;28;20045;-65
2023/08/22 01:17:26;;;;;;;15.90;9.02;;;16.80;99.90;;;;;;5015245;28;20081;-65
2023/08/22 01:19:53;;;;;;;15.52;9.02;;;16.90;99.90;;;;;;5014788;28;20084;-65
2023/08/22 01:22:24;;;;;;;14.93;9.65;;;16.90;99.90;;;;;;5031420;28;20049;-65
2023/08/22 01:24:50;;;;;;;16.92;11.15;;;16.90;99.90;;;;;;5015129;28;20041;-65
2023/08/22 01:27:17;;;;;;;14.32;11.68;;;16.80;99.90;;;;;;4998965;28;20055;-65
2023/08/22 01:29:51;;;;;;;16.67;11.27;;;16.80;99.90;;;;;;5049775;28;20045;-65
2023/08/22 01:32:27;;;;;;;18.95;12.25;;;16.90;99.90;;;;;;5014921;28;20540;-65
2023/08/22 01:34:57;;;;;;;17.67;12.77;;;16.80;99.90;;;;;;5031222;28;20045;-65
2023/08/22 01:37:23;;;;;;;15.32;12.02;;;16.80;99.90;;;;;;5049907;28;20511;-64
2023/08/22 01:39:55;;;;;;;20.42;12.95;;;16.80;99.90;;;;;;5031302;28;20040;-65
2023/08/22 01:42:23;;;;;;;15.80;11.88;;;16.70;99.90;;;;;;5032364;28;20563;-65
2023/08/22 01:44:48;;;;;;;20.13;14.65;;;16.70;99.90;;;;;;5014600;28;20668;-65
2023/08/22 01:47:14;;;;;;;15.60;13.23;;;16.80;99.90;;;;;;5014616;28;20053;-67
2023/08/22 01:49:40;;;;;;;16.00;12.68;;;16.70;99.90;;;;;;5049160;28;20036;-65
2023/08/22 01:52:06;;;;;;;19.80;14.57;;;16.80;99.90;;;;;;5014041;28;20048;-65
2023/08/22 01:54:32;;;;;;;19.50;14.38;;;16.70;99.90;;;;;;5031166;28;20052;-65
2023/08/22 01:56:58;;;;;;;22.75;16.67;;;16.70;99.90;;;;;;5048930;28;20126;-65
2023/08/22 01:59:24;;;;;;;22.85;17.80;;;16.60;99.90;;;;;;5013623;28;20558;-67
2023/08/22 02:01:49;;;;;;;25.10;19.15;;;16.60;99.90;;;;;;5014424;28;20051;-66
2023/08/22 02:04:15;;;;;;;19.92;15.82;;;16.70;99.90;;;;;;5048341;28;20049;-66
2023/08/22 02:06:41;;;;;;;19.40;15.13;;;16.70;99.90;;;;;;5047700;28;20517;-66
2023/08/22 02:09:06;;;;;;;23.00;15.95;;;16.70;99.90;;;;;;5048454;28;20076;-66
2023/08/22 02:11:32;;;;;;;21.08;17.20;;;16.70;99.90;;;;;;5002868;28;20049;-66
2023/08/22 02:13:58;;;;;;;19.77;16.33;;;16.60;99.90;;;;;;5048180;28;20518;-66
2023/08/22 02:16:24;;;;;;;21.38;17.38;;;16.60;99.90;;;;;;5030688;28;20687;-65
2023/08/22 02:18:50;;;;;;;21.58;17.45;;;16.50;99.90;;;;;;5030071;28;20510;-65
2023/08/22 02:21:17;;;;;;;20.13;17.92;;;16.50;99.90;;;;;;5030427;28;20049;-66
2023/08/22 02:23:42;;;;;;;24.33;18.05;;;16.40;99.90;;;;;;5030779;28;20578;-65
2023/08/22 02:26:08;;;;;;;29.35;21.98;;;16.40;99.90;;;;;;5030523;28;20116;-67
2023/08/22 02:28:34;;;;;;;23.88;19.63;;;16.40;99.90;;;;;;5029979;28;20427;-66
2023/08/22 02:31:00;;;;;;;30.40;21.83;;;16.40;99.90;;;;;;5029602;28;20048;-65
2023/08/22 02:33:26;;;;;;;29.73;21.48;;;16.40;99.90;;;;;;5048005;28;20040;-66
2023/08/22 02:35:52;;;;;;;28.63;20.13;;;16.40;99.90;;;;;;5031248;28;20041;-65
2023/08/22 02:38:17;;;;;;;27.23;22.55;;;16.40;99.90;;;;;;5013947;28;20053;-65
2023/08/22 02:40:43;;;;;;;28.73;21.38;;;16.40;99.90;;;;;;5048135;28;20144;-65
2023/08/22 02:43:08;;;;;;;27.27;20.23;;;16.40;99.90;;;;;;5030268;28;20546;-66
2023/08/22 02:45:34;;;;;;;28.83;21.20;;;16.30;99.90;;;;;;5046932;28;20485;-66
2023/08/22 02:48:00;;;;;;;24.02;20.23;;;16.30;99.90;;;;;;5047564;28;20063;-68
2023/08/22 02:50:26;;;;;;;26.48;20.73;;;16.30;99.90;;;;;;5029644;28;20068;-65
2023/08/22 02:52:52;;;;;;;23.42;20.02;;;16.40;99.90;;;;;;5030334;28;20049;-64
2023/08/22 02:55:17;;;;;;;33.80;23.95;;;16.30;99.90;;;;;;5013356;28;20619;-65
2023/08/22 02:57:44;;;;;;;32.45;24.65;;;16.20;99.90;;;;;;5030237;28;20098;-64
2023/08/22 03:00:11;;;;;;;27.38;19.95;;;16.30;99.90;;;;;;5012329;28;20124;-66
2023/08/22 03:09:22;;;;;;;24.92;19.83;;;16.10;99.90;;;;;;5030264;28;20103;-66
2023/08/22 03:11:47;;;;;;;25.70;20.00;;;16.20;99.90;;;;;;5014312;28;20071;-65
2023/08/22 03:14:13;;;;;;;26.60;20.77;;;16.20;99.90;;;;;;5030031;28;20467;-65
2023/08/22 03:16:39;;;;;;;30.65;22.33;;;16.20;99.90;;;;;;5030419;28;20498;-65
2023/08/22 03:19:05;;;;;;;29.35;21.17;;;16.10;99.90;;;;;;5030092;28;20159;-66
2023/08/22 03:21:31;;;;;;;28.52;22.42;;;16.20;99.90;;;;;;5029902;28;20551;-66
2023/08/22 03:23:56;;;;;;;31.95;22.20;;;16.10;99.90;;;;;;5029460;28;20140;-65
2023/08/22 03:26:22;;;;;;;29.42;21.70;;;16.10;99.90;;;;;;5029466;28;20037;-66
2023/08/22 03:28:48;;;;;;;25.10;20.48;;;16.20;99.90;;;;;;5029422;28;20045;-65
2023/08/22 03:31:13;;;;;;;27.50;20.27;;;16.20;99.90;;;;;;4996334;28;20075;-65
2023/08/22 03:33:39;;;;;;;25.27;21.85;;;16.10;99.90;;;;;;5032314;28;20386;-67
2023/08/22 03:36:05;;;;;;;27.38;20.75;;;16.10;99.90;;;;;;5034172;28;20045;-65
2023/08/22 03:38:31;;;;;;;27.80;21.58;;;16.10;99.90;;;;;;5033657;28;20049;-67
2023/08/22 03:40:56;;;;;;;28.95;21.88;;;16.00;99.90;;;;;;5018299;28;20040;-65
2023/08/22 03:44:02;;;;;;;33.67;24.77;;;16.00;99.90;;;;;;5033751;28;20089;-66
2023/08/22 03:46:28;;;;;;;30.58;23.08;;;16.00;99.90;;;;;;5033847;28;20055;-65
2023/08/22 03:48:54;;;;;;;28.67;22.42;;;16.00;99.90;;;;;;5033997;28;20406;-66
2023/08/22 03:51:19;;;;;;;30.08;21.80;;;15.90;99.90;;;;;;5017797;28;20049;-66
2023/08/22 03:53:45;;;;;;;33.58;23.95;;;15.70;99.90;;;;;;5034130;28;20081;-65
2023/08/22 03:56:11;;;;;;;30.27;22.88;;;15.80;99.90;;;;;;5051924;28;20032;-67
2023/08/22 03:58:36;;;;;;;28.23;22.23;;;15.60;99.90;;;;;;5003086;28;20110;-66
2023/08/22 04:01:03;;;;;;;30.73;23.30;;;15.70;99.90;;;;;;5017913;28;20116;-66
2023/08/22 04:03:30;;;;;;;26.80;20.77;;;15.60;99.90;;;;;;5034299;28;20041;-64
2023/08/22 04:05:57;;;;;;;37.95;24.60;;;15.50;99.90;;;;;;5034362;28;20110;-65
2023/08/22 04:08:23;;;;;;;31.83;24.02;;;15.40;99.90;;;;;;5034251;28;20052;-65
2023/08/22 04:11:27;;;;;;;36.13;25.23;;;15.50;99.90;;;;;;5034141;28;20463;-65
2023/08/22 04:13:53;;;;;;;35.75;23.83;;;15.30;99.90;;;;;;5001643;28;20044;-65
2023/08/22 04:16:19;;;;;;;40.33;26.02;;;15.30;99.90;;;;;;5001983;28;20041;-65
2023/08/22 04:18:45;;;;;;;41.15;27.08;;;15.20;99.90;;;;;;5033440;28;20052;-64
2023/08/22 04:21:11;;;;;;;36.08;25.73;;;15.30;99.90;;;;;;5017053;28;20037;-65
2023/08/22 04:23:37;;;;;;;42.85;26.45;;;15.30;99.90;;;;;;5034139;28;20123;-65
2023/08/22 04:26:03;;;;;;;43.40;28.50;;;15.10;99.90;;;;;;5017795;28;20127;-65
2023/08/22 04:28:29;;;;;;;38.28;26.73;;;15.30;99.90;;;;;;5051565;28;20551;-65
2023/08/22 04:30:59;;;;;;;46.08;30.50;;;15.10;99.90;;;;;;5051714;28;20437;-65
2023/08/22 04:33:25;;;;;;;41.55;28.83;;;15.20;99.90;;;;;;5012935;28;20045;-66
2023/08/22 04:40:03;;;;;;;42.08;28.25;;;15.20;99.90;;;;;;5051821;28;20482;-65
2023/08/22 04:42:29;;;;;;;51.17;32.95;;;15.20;99.90;;;;;;5049710;28;20056;-65
2023/08/22 04:44:55;;;;;;;47.67;29.98;;;15.10;99.90;;;;;;5016677;28;20390;-66
2023/08/22 04:47:21;;;;;;;49.50;32.33;;;15.00;99.90;;;;;;5033807;28;20049;-65
2023/08/22 04:49:47;;;;;;;50.45;32.42;;;15.00;99.90;;;;;;4999872;28;20033;-67
2023/08/22 04:52:12;;;;;;;50.78;35.60;;;14.90;99.90;;;;;;5000413;28;20041;-65
2023/08/22 04:58:40;;;;;;;50.30;33.63;;;15.00;99.90;;;;;;5051160;28;20068;-64
2023/08/22 05:01:06;;;;;;;52.58;33.53;;;15.10;99.90;;;;;;5050995;28;20473;-64
2023/08/22 05:03:31;;;;;;;45.55;31.42;;;15.10;99.90;;;;;;5032680;28;20045;-63
2023/08/22 05:05:57;;;;;;;51.13;32.35;;;15.10;99.90;;;;;;5032720;28;20041;-66
2023/08/22 05:08:23;;;;;;;44.85;31.50;;;15.10;99.90;;;;;;4971848;28;20674;-64
2023/08/22 05:10:48;;;;;;;39.95;29.42;;;15.20;99.90;;;;;;5051344;28;20037;-65
2023/08/22 05:13:14;;;;;;;49.25;35.03;;;15.20;99.90;;;;;;5033250;28;20128;-65
2023/08/22 05:15:41;;;;;;;44.33;31.65;;;15.40;99.90;;;;;;5016250;28;20391;-64
2023/08/22 05:18:45;;;;;;;47.28;31.50;;;15.40;99.90;;;;;;5032664;28;20572;-65
2023/08/22 05:21:12;;;;;;;46.90;32.28;;;15.30;99.90;;;;;;4999655;28;20041;-64
2023/08/22 05:23:38;;;;;;;48.88;33.15;;;15.50;99.90;;;;;;5049229;28;20041;-65
2023/08/22 05:26:03;;;;;;;38.95;27.35;;;15.40;99.90;;;;;;5046737;28;20037;-64
2023/08/22 05:28:29;;;;;;;42.28;29.40;;;15.50;99.90;;;;;;5030151;28;20059;-66
2023/08/22 05:30:55;;;;;;;42.33;29.60;;;15.50;99.90;;;;;;5030322;28;20044;-65
2023/08/22 05:33:20;;;;;;;37.28;27.15;;;15.80;99.90;;;;;;5030323;28;20398;-65
2023/08/22 05:35:46;;;;;;;32.13;23.58;;;15.90;99.90;;;;;;5048918;28;20048;-66
2023/08/22 05:38:12;;;;;;;29.80;22.17;;;15.90;99.90;;;;;;5014215;28;20045;-65
2023/08/22 05:40:38;;;;;;;25.17;19.60;;;16.10;99.90;;;;;;5013519;28;20360;-66
2023/08/22 05:43:04;;;;;;;24.20;17.30;;;16.50;99.90;;;;;;4990219;28;20048;-65
2023/08/22 05:45:29;;;;;;;19.88;15.43;;;16.70;99.90;;;;;;5029893;28;20041;-65
2023/08/22 05:47:55;;;;;;;18.80;12.07;;;17.00;99.90;;;;;;4996402;28;20044;-64
2023/08/22 05:50:21;;;;;;;15.48;12.02;;;17.40;99.90;;;;;;5047519;28;20056;-64
2023/08/22 05:53:24;;;;;;;14.88;10.00;;;17.60;99.90;;;;;;5031617;28;20049;-65
2023/08/22 05:55:50;;;;;;;12.68;9.43;;;18.10;99.90;;;;;;5031137;28;20045;-65
2023/08/22 05:58:15;;;;;;;11.35;9.00;;;18.40;99.90;;;;;;5049253;28;20124;-65
2023/08/22 06:00:41;;;;;;;12.13;9.23;;;18.60;99.90;;;;;;5030519;28;20037;-65
2023/08/22 06:03:07;;;;;;;12.65;8.77;;;18.80;99.90;;;;;;5048586;28;20560;-65
2023/08/22 06:05:32;;;;;;;11.90;9.00;;;18.90;99.90;;;;;;5048490;28;20564;-65
2023/08/22 06:07:58;;;;;;;14.27;8.40;;;18.90;99.90;;;;;;5031494;28;20041;-66
2023/08/22 06:10:24;;;;;;;8.68;7.50;;;19.10;99.90;;;;;;5049644;28;20494;-66
2023/08/22 06:12:49;;;;;;;13.05;7.60;;;19.10;99.90;;;;;;5031956;28;20640;-66
2023/08/22 06:15:15;;;;;;;10.25;7.43;;;19.40;99.90;;;;;;5049512;28;20053;-65
2023/08/22 06:17:41;;;;;;;12.02;7.22;;;19.70;99.90;;;;;;5049970;28;20072;-67
2023/08/22 06:20:07;;;;;;;10.40;6.80;;;19.80;99.90;;;;;;5031649;28;20045;-66
2023/08/22 06:22:33;;;;;;;10.20;6.85;;;20.10;99.90;;;;;;5049282;28;20033;-64
2023/08/22 06:24:59;;;;;;;13.10;6.28;;;20.30;99.90;;;;;;5049141;28;20044;-64
2023/08/22 06:27:25;;;;;;;9.18;6.20;;;20.30;99.90;;;;;;5003292;28;20487;-64
2023/08/22 06:29:50;;;;;;;9.65;6.10;;;20.30;99.90;;;;;;5049411;28;20486;-65
2023/08/22 06:32:21;;;;;;;10.05;5.85;;;20.50;99.90;;;;;;5030285;28;20041;-65
2023/08/22 06:34:46;;;;;;;10.80;6.38;;;20.40;99.90;;;;;;5014779;28;20503;-66
2023/08/22 06:37:12;;;;;;;10.43;6.13;;;20.10;99.90;;;;;;5015144;28;20041;-65
2023/08/22 06:39:39;;;;;;;9.63;6.82;;;19.80;99.90;;;;;;5031246;28;20509;-64
2023/08/22 06:42:05;;;;;;;12.00;6.72;;;19.60;99.90;;;;;;5049641;28;20040;-64
2023/08/22 06:44:31;;;;;;;10.63;6.53;;;19.30;99.90;;;;;;5030738;28;20056;-65
2023/08/22 06:46:56;;;;;;;15.18;6.95;;;19.30;99.90;;;;;;5048788;28;20060;-65
2023/08/22 06:49:22;;;;;;;10.50;6.70;;;19.30;99.90;;;;;;5014210;28;20068;-65
2023/08/22 06:51:48;;;;;;;9.80;7.10;;;19.50;99.90;;;;;;5027702;28;20050;-66
2023/08/22 06:54:13;;;;;;;14.35;7.25;;;19.60;99.90;;;;;;5027399;28;20053;-64
2023/08/22 06:56:39;;;;;;;8.95;6.57;;;19.80;99.90;;;;;;5010757;28;20044;-66
2023/08/22 06:59:05;;;;;;;9.32;6.50;;;20.00;99.90;;;;;;5011144;28;20040;-67
2023/08/22 07:01:30;;;;;;;11.07;6.72;;;20.10;99.90;;;;;;5010667;28;20065;-65
2023/08/22 07:03:56;;;;;;;12.25;6.63;;;20.10;99.90;;;;;;5027557;28;20073;-66
2023/08/22 07:06:22;;;;;;;10.75;5.97;;;20.00;99.90;;;;;;5010608;28;20458;-65
2023/08/22 07:08:47;;;;;;;9.57;5.80;;;20.30;99.90;;;;;;5009786;28;20552;-66
2023/08/22 07:11:13;;;;;;;11.15;5.95;;;20.50;99.90;;;;;;5010118;28;20044;-65
2023/08/22 07:13:40;;;;;;;11.70;6.03;;;20.40;99.90;;;;;;5027546;28;20099;-67
2023/08/22 07:16:06;;;;;;;9.45;5.28;;;20.60;99.90;;;;;;5026908;28;20037;-65
2023/08/22 07:18:31;;;;;;;10.50;5.43;;;20.60;99.90;;;;;;5027456;28;20046;-65
2023/08/22 07:21:07;;;;;;;10.45;5.00;;;20.70;99.90;;;;;;5026625;28;20431;-65
2023/08/22 07:23:33;;;;;;;10.52;5.32;;;20.70;99.90;;;;;;5027109;28;20496;-65
2023/08/22 07:25:59;;;;;;;7.50;4.88;;;20.80;99.90;;;;;;5026478;28;20080;-64
2023/08/22 07:28:24;;;;;;;12.55;5.32;;;20.80;99.90;;;;;;5025609;28;20084;-65
2023/08/22 07:30:50;;;;;;;10.27;4.95;;;20.60;99.90;;;;;;5010577;28;20112;-64
2023/08/22 07:33:16;;;;;;;10.02;5.18;;;20.50;99.90;;;;;;5026811;28;20504;-65
2023/08/22 07:35:44;;;;;;;8.30;5.40;;;20.50;99.90;;;;;;5010182;28;20049;-65
2023/08/22 07:38:09;;;;;;;9.43;5.18;;;20.50;99.90;;;;;;5027940;28;20099;-66
2023/08/22 07:40:40;;;;;;;8.98;5.38;;;20.50;99.90;;;;;;4993397;28;20109;-65
2023/08/22 07:43:06;;;;;;;12.00;5.65;;;20.60;99.90;;;;;;5027057;28;20052;-66
2023/08/22 07:45:32;;;;;;;10.35;5.40;;;21.10;99.90;;;;;;5026356;28;20130;-65
2023/08/22 07:47:58;;;;;;;8.43;4.68;;;21.60;99.90;;;;;;5026232;28;20050;-65
2023/08/22 07:50:24;;;;;;;9.73;4.90;;;22.00;99.90;;;;;;5025295;28;20069;-65
2023/08/22 07:52:49;;;;;;;7.43;4.53;;;22.60;99.90;;;;;;5026823;28;20127;-65
2023/08/22 07:55:15;;;;;;;7.82;4.57;;;23.10;99.90;;;;;;5026215;28;20038;-65
2023/08/22 07:57:41;;;;;;;7.63;4.00;;;23.10;99.90;;;;;;5025897;28;20048;-66
2023/08/22 08:00:10;;;;;;;7.88;4.65;;;23.10;99.90;;;;;;5009372;28;20080;-65
2023/08/22 08:02:37;;;;;;;6.20;4.13;;;22.70;99.90;;;;;;5025448;28;20096;-65
2023/08/22 08:05:03;;;;;;;9.27;4.88;;;22.40;99.90;;;;;;4993876;28;20487;-65
2023/08/22 08:07:28;;;;;;;7.32;4.40;;;21.90;99.90;;;;;;5026682;28;20254;-65
2023/08/22 08:09:54;;;;;;;7.00;4.53;;;21.50;99.90;;;;;;5027953;28;20563;-64
2023/08/22 08:12:19;;;;;;;5.47;4.50;;;21.40;99.90;;;;;;5026154;28;20388;-66
2023/08/22 08:14:45;;;;;;;8.45;4.57;;;21.50;99.90;;;;;;5025914;28;20056;-65
2023/08/22 08:17:11;;;;;;;6.85;4.50;;;21.90;99.90;;;;;;5009731;28;20408;-67
2023/08/22 08:19:37;;;;;;;5.75;4.30;;;22.40;99.90;;;;;;4995968;28;20509;-66
2023/08/22 08:22:04;;;;;;;5.18;4.03;;;23.10;99.90;;;;;;5029217;28;20384;-64
2023/08/22 08:25:08;;;;;;;8.80;3.75;;;23.40;99.90;;;;;;5002523;28;20511;-65
2023/08/22 08:27:34;;;;;;;6.10;3.83;;;23.70;99.90;;;;;;5028894;28;20415;-66
2023/08/22 08:29:59;;;;;;;6.57;3.58;;;24.10;99.90;;;;;;5012551;28;20048;-67
2023/08/22 08:32:25;;;;;;;5.93;3.10;;;24.50;99.90;;;;;;5028950;28;20049;-65
2023/08/22 08:34:51;;;;;;;7.55;2.67;;;24.80;91.00;;;;;;5028318;28;20038;-66
2023/08/22 08:37:17;;;;;;;5.20;2.70;;;25.00;54.60;;;;;;5030821;28;20068;-65
2023/08/22 08:39:42;;;;;;;6.53;2.70;;;25.20;21.00;;;;;;5031173;28;20076;-64
2023/08/22 08:42:12;;;;;;;5.07;2.80;;;24.80;17.00;;;;;;5029734;28;20045;-66
2023/08/22 08:44:39;;;;;;;6.13;2.75;;;24.30;25.60;;;;;;5029056;28;20049;-65
2023/08/22 08:47:07;;;;;;;7.03;3.10;;;24.00;28.50;;;;;;5030375;28;20056;-65
2023/08/22 08:49:34;;;;;;;5.75;2.80;;;23.60;40.60;;;;;;5029503;28;20100;-65
2023/08/22 08:52:07;;;;;;;8.05;2.75;;;23.50;47.60;;;;;;5048270;28;20049;-64
2023/08/22 08:54:33;;;;;;;6.22;2.70;;;23.20;45.90;;;;;;5017059;28;20073;-65
2023/08/22 08:57:02;;;;;;;3.95;2.47;;;23.10;48.10;;;;;;5032301;28;20048;-65
2023/08/22 08:59:29;;;;;;;5.10;2.40;;;22.80;39.60;;;;;;5031993;28;20045;-65
2023/08/22 09:01:56;;;;;;;4.65;2.47;;;23.10;38.80;;;;;;5014545;28;20037;-66
2023/08/22 09:04:22;;;;;;;5.18;2.58;;;23.70;31.90;;;;;;5049568;28;20041;-65
2023/08/22 09:06:48;;;;;;;4.85;2.50;;;23.80;20.20;;;;;;5032616;28;20391;-65
2023/08/22 09:09:14;;;;;;;5.35;2.55;;;23.70;20.70;;;;;;5050311;28;20052;-65
2023/08/22 09:11:42;;;;;;;4.28;2.22;;;23.80;22.90;;;;;;5032426;28;20033;-66
2023/08/22 09:14:10;;;;;;;6.97;2.42;;;24.00;26.70;;;;;;5032155;28;20044;-67
2023/08/22 09:16:36;;;;;;;4.50;2.33;;;23.80;27.80;;;;;;5049322;28;20053;-65
2023/08/22 09:19:02;;;;;;;3.92;2.50;;;23.70;29.30;;;;;;5032247;28;20114;-66
2023/08/22 09:21:28;;;;;;;4.88;2.40;;;23.80;27.50;;;;;;5049922;28;20094;-64
2023/08/22 09:24:05;;;;;;;6.32;2.45;;;23.90;23.00;;;;;;5015628;28;20068;-64
2023/08/22 09:26:31;;;;;;;4.15;2.03;;;24.20;16.30;;;;;;5031590;28;20660;-64
2023/08/22 09:28:56;;;;;;;4.45;2.10;;;24.50;6.10;;;;;;5031129;28;20029;-66
2023/08/22 09:31:23;;;;;;;4.22;1.73;;;25.00;2.80;;;;;;5030122;28;20069;-64
2023/08/22 09:33:50;;;;;;;3.78;1.95;;;25.10;1.00;;;;;;5030932;28;20040;-64
2023/08/22 09:36:20;;;;;;;5.05;2.33;;;25.20;1.00;;;;;;5030803;28;20124;-65
2023/08/22 09:38:55;;;;;;;4.28;1.60;;;25.20;1.00;;;;;;5031228;28;20114;-66
2023/08/22 09:41:25;;;;;;;4.90;1.33;;;25.30;1.00;;;;;;5049666;28;20045;-66
2023/08/22 09:44:00;;;;;;;2.65;1.30;;;25.60;1.00;;;;;;5013717;28;20052;-65
2023/08/22 09:46:26;;;;;;;3.25;1.05;;;26.00;1.00;;;;;;5013971;28;20052;-65
2023/08/22 09:48:56;;;;;;;2.05;1.20;;;26.40;1.00;;;;;;5049113;28;20037;-65
2023/08/22 09:54:51;;;;;;;3.00;1.52;;;27.10;1.00;;;;;;5048843;28;20048;-64
2023/08/22 09:57:17;;;;;;;4.07;1.13;;;27.10;1.00;;;;;;5030805;28;20098;-65
2023/08/22 09:59:47;;;;;;;3.50;1.05;;;27.40;1.00;;;;;;5048740;28;20037;-64
2023/08/22 10:02:15;;;;;;;1.83;0.90;;;27.80;1.00;;;;;;5031017;28;20041;-64
2023/08/22 10:04:41;;;;;;;4.07;1.00;;;27.30;1.00;;;;;;5014537;28;20124;-65
2023/08/22 10:07:08;;;;;;;3.38;0.95;;;27.30;1.00;;;;;;5048180;28;20191;-65
2023/08/22 10:09:34;;;;;;;4.00;1.00;;;27.50;1.00;;;;;;5031032;28;20049;-67
2023/08/22 10:12:05;;;;;;;5.80;0.88;;;27.60;1.00;;;;;;5031096;28;20037;-64
2023/08/22 10:14:42;;;;;;;2.92;0.65;;;27.90;1.00;;;;;;5031009;28;20037;-65
2023/08/22 10:17:13;;;;;;;1.55;0.60;;;27.70;1.00;;;;;;5013724;28;20048;-67
2023/08/22 10:19:40;;;;;;;3.40;0.80;;;27.30;1.00;;;;;;5047317;28;20040;-65
2023/08/22 10:22:08;;;;;;;2.42;0.73;;;27.40;1.00;;;;;;5030300;28;20423;-67
2023/08/22 10:24:35;;;;;;;2.80;0.60;;;27.30;1.00;;;;;;5047929;28;20216;-65
2023/08/22 10:27:27;;;;;;;2.67;0.57;;;27.10;1.00;;;;;;5014467;28;20300;-64
2023/08/22 10:30:11;;;;;;;2.50;0.60;;;27.40;1.00;;;;;;5024961;28;20041;-65
2023/08/22 10:32:37;;;;;;;3.30;0.80;;;27.80;1.00;;;;;;5048550;28;20037;-65
2023/08/22 10:35:09;;;;;;;2.25;0.60;;;28.20;1.00;;;;;;5030796;28;20040;-65
2023/08/22 10:37:47;;;;;;;2.30;0.60;;;28.20;1.00;;;;;;5030271;28;20072;-65
2023/08/22 10:40:27;;;;;;;3.05;0.50;;;28.20;1.00;;;;;;5048283;28;20494;-66
2023/08/22 10:43:07;;;;;;;5.03;0.60;;;28.30;1.00;;;;;;5029715;28;20048;-66
2023/08/22 10:45:48;;;;;;;2.47;0.60;;;28.50;1.00;;;;;;5012967;28;20106;-66
2023/08/22 10:48:15;;;;;;;4.20;0.82;;;28.60;1.00;;;;;;5030587;28;20037;-66
2023/08/22 10:50:43;;;;;;;3.65;0.80;;;28.50;1.00;;;;;;5028310;28;20132;-65
2023/08/22 10:53:27;;;;;;;2.50;0.63;;;28.40;1.00;;;;;;5030860;28;20451;-66
2023/08/22 10:55:54;;;;;;;2.90;0.75;;;28.30;1.00;;;;;;5030276;28;20152;-65
2023/08/22 10:58:33;;;;;;;1.75;0.63;;;28.40;1.00;;;;;;5029449;28;20041;-65
2023/08/22 11:00:59;;;;;;;2.08;0.55;;;28.50;1.00;;;;;;5030233;28;20044;-65
2023/08/22 11:03:25;;;;;;;2.45;0.60;;;28.70;1.00;;;;;;4996940;28;20522;-65
2023/08/22 11:05:51;;;;;;;3.88;0.88;;;28.80;1.00;;;;;;5047538;28;20041;-65
2023/08/22 11:08:17;;;;;;;2.65;0.40;;;28.60;1.00;;;;;;5029138;28;20055;-64
2023/08/22 11:10:43;;;;;;;2.30;0.40;;;28.90;1.00;;;;;;4997010;28;20037;-66
2023/08/22 11:13:09;;;;;;;2.50;0.50;;;28.80;1.00;;;;;;5047351;28;20052;-66
2023/08/22 11:15:35;;;;;;;2.38;0.50;;;28.90;1.00;;;;;;5029543;28;20051;-65
2023/08/22 11:18:05;;;;;;;3.30;0.50;;;28.80;1.00;;;;;;5013180;28;20045;-65
2023/08/22 11:20:31;;;;;;;3.25;0.65;;;28.60;1.00;;;;;;5013444;28;20126;-67
2023/08/22 11:22:57;;;;;;;2.55;0.70;;;28.40;1.00;;;;;;5030432;28;20051;-67
2023/08/22 11:25:25;;;;;;;3.78;0.60;;;28.30;1.00;;;;;;5013966;28;20049;-66
2023/08/22 11:27:51;;;;;;;3.33;0.95;;;28.50;1.00;;;;;;5030099;28;20464;-65
2023/08/22 11:30:18;;;;;;;2.60;0.60;;;28.80;1.00;;;;;;5047701;28;20073;-65
2023/08/22 11:33:03;;;;;;;2.45;0.60;;;28.90;1.00;;;;;;5047813;28;20037;-65
2023/08/22 11:35:31;;;;;;;1.55;0.40;;;29.00;1.00;;;;;;5028751;28;20413;-66
2023/08/22 11:37:57;;;;;;;2.10;0.68;;;29.20;1.00;;;;;;5012733;28;20047;-66
2023/08/22 11:40:25;;;;;;;1.67;0.40;;;29.40;1.00;;;;;;5030298;28;20045;-66
2023/08/22 11:42:51;;;;;;;2.47;0.40;;;29.00;1.00;;;;;;5013549;28;20487;-66
2023/08/22 11:52:07;;;;;;;2.17;0.40;;;28.70;1.00;;;;;;5029211;28;20076;-66
2023/08/22 11:54:33;;;;;;;2.03;0.60;;;28.70;1.00;;;;;;5032661;28;20048;-66
2023/08/22 11:57:00;;;;;;;2.45;0.63;;;29.60;1.00;;;;;;5033693;28;20045;-67
2023/08/22 11:59:25;;;;;;;3.58;0.50;;;29.60;1.00;;;;;;5001651;28;20106;-65
2023/08/22 12:01:51;;;;;;;3.85;0.60;;;30.20;1.00;;;;;;5017957;28;20045;-66
2023/08/22 12:04:17;;;;;;;4.03;0.80;;;30.20;1.00;;;;;;5034442;28;20453;-66
2023/08/22 12:06:57;;;;;;;4.32;0.73;;;29.40;1.00;;;;;;5017299;28;20179;-66
2023/08/22 12:09:23;;;;;;;1.92;0.60;;;28.80;1.00;;;;;;5033627;28;20048;-65
2023/08/22 12:11:48;;;;;;;6.40;0.70;;;28.90;1.00;;;;;;5051046;28;20079;-66
2023/08/22 12:14:15;;;;;;;3.65;0.60;;;28.70;1.00;;;;;;5017339;28;20557;-65
2023/08/22 12:16:41;;;;;;;3.50;0.77;;;28.30;1.00;;;;;;5051068;28;20037;-66
2023/08/22 12:19:11;;;;;;;3.85;1.00;;;27.90;1.00;;;;;;5016598;28;20509;-66
2023/08/22 12:21:36;;;;;;;4.00;0.70;;;27.80;1.00;;;;;;5017201;28;20045;-67
2023/08/22 12:24:02;;;;;;;2.05;0.50;;;28.10;1.00;;;;;;5000785;28;20454;-67
2023/08/22 12:26:48;;;;;;;2.42;0.70;;;28.60;1.00;;;;;;5033853;28;20088;-65
2023/08/22 12:29:14;;;;;;;3.35;0.60;;;29.00;1.00;;;;;;5032937;28;20045;-66
2023/08/22 12:31:39;;;;;;;3.58;0.70;;;29.00;1.00;;;;;;5016329;28;20538;-67
2023/08/22 12:34:05;;;;;;;4.80;2.60;;;28.90;1.00;;;;;;5050878;28;20063;-66
2023/08/22 12:36:31;;;;;;;2.17;1.23;;;29.10;1.00;;;;;;5016799;28;20402;-68
2023/08/22 12:38:56;;;;;;;1.55;0.57;;;29.10;1.00;;;;;;5049477;28;20041;-67
2023/08/22 12:41:22;;;;;;;2.97;0.77;;;29.20;1.00;;;;;;5031412;28;20079;-65
2023/08/22 12:43:48;;;;;;;2.47;0.70;;;29.50;1.00;;;;;;4999079;28;20131;-67
2023/08/22 12:46:13;;;;;;;3.40;0.88;;;29.90;1.00;;;;;;5032700;28;20127;-66
2023/08/22 12:48:39;;;;;;;1.60;0.50;;;30.00;1.00;;;;;;5000261;28;20045;-67
2023/08/22 12:51:05;;;;;;;2.13;0.68;;;29.80;1.00;;;;;;5050478;28;20503;-66
2023/08/22 12:53:31;;;;;;;2.92;0.47;;;30.10;1.00;;;;;;5032804;28;20116;-66
2023/08/22 12:56:18;;;;;;;1.70;0.40;;;30.20;1.00;;;;;;5033220;28;20075;-66
2023/08/22 12:58:46;;;;;;;3.13;0.60;;;30.10;1.00;;;;;;5033111;28;20124;-66
2023/08/22 13:01:13;;;;;;;6.90;0.52;;;29.90;1.00;;;;;;5032522;28;20044;-67
2023/08/22 13:03:39;;;;;;;3.70;0.50;;;30.00;1.00;;;;;;5033226;28;20049;-67
2023/08/22 13:06:05;;;;;;;3.25;0.30;;;30.30;1.00;;;;;;5015196;28;20557;-67
2023/08/22 13:08:30;;;;;;;2.03;0.30;;;30.40;1.00;;;;;;5031890;28;20064;-68